This is the latest recevied weather packets stored in our database for station/object KD5BIG-13. If no packets are shown the sender has not sent any weather packets the latest 10 day(s).
| Time | Temp. | Humidity | Pressure | Rain* | Wind** | Luminosity | Snow |
|---|---|---|---|---|---|---|---|
| 1777753231 | 21.67° C | 43% | 1021.9 hPa | 0 mm | - | 832 W/m² | - |
| 1777752926 | 21.67° C | 38% | 1021.9 hPa | 0 mm | - | 850 W/m² | - |
| 1777752622 | 21.67° C | 38% | 1021.9 hPa | 0 mm | - | 865 W/m² | - |
| 1777752318 | 21.67° C | 42% | 1021.9 hPa | 0 mm | - | 879 W/m² | - |
| 1777752017 | 21.67° C | 43% | 1022 hPa | 0 mm | - | 896 W/m² | - |
| 1777751714 | 21.67° C | 41% | 1022 hPa | 0 mm | - | 907 W/m² | - |
| 1777751410 | 21.67° C | 38% | 1022.1 hPa | 0 mm | - | 916 W/m² | - |
| 1777751107 | 21.67° C | 41% | 1022.2 hPa | 0 mm | - | 934 W/m² | - |
| 1777750500 | 21.67° C | 38% | 1022.3 hPa | 0 mm | - | 948 W/m² | - |
| 1777750195 | 21.67° C | 36% | 1022.3 hPa | 0 mm | - | 956 W/m² | - |
| 1777749589 | 21.67° C | 37% | 1022.2 hPa | 0 mm | - | 973 W/m² | - |
| 1777748985 | 21.67° C | 38% | 1022.3 hPa | 0 mm | - | 982 W/m² | - |
| 1777748682 | 21.67° C | 40% | 1022.4 hPa | 0 mm | - | 967 W/m² | - |
| 1777748378 | 21.67° C | 41% | 1022.4 hPa | 0 mm | - | 960 W/m² | - |
| 1777748073 | 21.67° C | 42% | 1022.5 hPa | 0 mm | - | 985 W/m² | - |
| 1777747771 | 21.67° C | 40% | 1022.5 hPa | 0 mm | - | 980 W/m² | - |
| 1777747466 | 21.11° C | 37% | 1022.5 hPa | 0 mm | - | 957 W/m² | - |
| 1777747163 | 21.11° C | 37% | 1022.6 hPa | 0 mm | - | 937 W/m² | - |
| 1777746859 | 21.11° C | 40% | 1022.6 hPa | 0 mm | - | 926 W/m² | - |
| 1777746555 | 21.11° C | 38% | 1022.6 hPa | 0 mm | - | 926 W/m² | - |
| 1777745947 | 21.11° C | 48% | 1022.9 hPa | 0 mm | - | 921 W/m² | - |
| 1777745343 | 21.11° C | 42% | 1022.8 hPa | 0 mm | - | 918 W/m² | - |
| 1777745040 | 21.11° C | 43% | 1022.9 hPa | 0 mm | - | 910 W/m² | - |
| 1777744735 | 21.11° C | 44% | 1022.9 hPa | 0 mm | - | 900 W/m² | - |
| 1777743521 | 20.56° C | 43% | 1023 hPa | 0 mm | - | 886 W/m² | - |
* Rain latest hour (hover to see other rain measurements)
** Current wind speed in m/s (hover to see current wind gust speed)